createdAt,value
2023-04-09T00:01:34.695Z,23.50
2023-04-09T00:04:01.565Z,22.73
2023-04-09T00:06:28.272Z,22.40
2023-04-09T00:08:55.008Z,23.57
2023-04-09T00:11:21.649Z,24.17
2023-04-09T00:13:48.422Z,24.10
2023-04-09T00:16:15.026Z,24.27
2023-04-09T00:18:41.721Z,22.80
2023-04-09T00:21:08.630Z,23.80
2023-04-09T00:23:35.978Z,23.53
2023-04-09T00:26:02.693Z,23.63
2023-04-09T00:28:29.312Z,23.17
2023-04-09T00:30:55.977Z,23.70
2023-04-09T00:33:22.544Z,23.10
2023-04-09T00:35:49.183Z,23.47
2023-04-09T00:38:16.368Z,23.73
2023-04-09T00:40:42.995Z,23.60
2023-04-09T00:43:09.888Z,21.87
2023-04-09T00:45:36.582Z,22.53
2023-04-09T00:48:03.500Z,21.93
2023-04-09T00:50:30.143Z,23.00
2023-04-09T00:52:56.838Z,21.60
2023-04-09T00:55:23.719Z,23.30
2023-04-09T00:57:50.301Z,23.03
2023-04-09T01:00:16.967Z,23.30
2023-04-09T01:02:44.583Z,24.23
2023-04-09T01:05:13.068Z,24.10
2023-04-09T01:08:03.734Z,23.53
2023-04-09T01:10:42.458Z,23.00
2023-04-09T01:13:12.976Z,23.37
2023-04-09T01:15:54.023Z,22.73
2023-04-09T01:18:35.413Z,23.17
2023-04-09T01:21:10.105Z,21.97
2023-04-09T01:23:57.001Z,23.00
2023-04-09T01:27:06.024Z,22.63
2023-04-09T01:29:35.857Z,21.37
2023-04-09T01:32:04.737Z,22.20
2023-04-09T01:34:32.088Z,22.80
2023-04-09T01:37:02.219Z,22.10
2023-04-09T01:39:29.467Z,23.00
2023-04-09T01:41:57.870Z,22.90
2023-04-09T01:44:26.268Z,22.53
2023-04-09T01:46:54.279Z,23.03
2023-04-09T01:49:21.669Z,22.13
2023-04-09T01:51:48.659Z,21.93
2023-04-09T01:54:16.829Z,22.90
2023-04-09T01:56:48.108Z,21.70
2023-04-09T01:59:15.006Z,22.60
2023-04-09T02:01:47.508Z,22.60
2023-04-09T02:04:24.126Z,22.50
2023-04-09T02:07:20.166Z,22.30
2023-04-09T02:09:48.742Z,21.77
2023-04-09T02:12:18.514Z,22.93
2023-04-09T02:14:51.891Z,23.57
2023-04-09T02:17:19.010Z,23.80
2023-04-09T02:19:48.194Z,23.40
2023-04-09T02:22:16.517Z,23.17
2023-04-09T02:24:43.135Z,22.87
2023-04-09T02:27:09.767Z,23.60
2023-04-09T02:29:36.340Z,22.80
2023-04-09T02:32:02.982Z,22.10
2023-04-09T02:34:29.627Z,22.67
2023-04-09T02:36:56.274Z,22.33
2023-04-09T02:39:22.956Z,22.43
2023-04-09T02:41:49.644Z,21.63
2023-04-09T02:44:16.280Z,21.97
2023-04-09T02:46:43.750Z,23.17
2023-04-09T02:49:10.522Z,23.40
2023-04-09T02:51:37.164Z,23.77
2023-04-09T02:54:04.568Z,23.93
2023-04-09T02:56:31.149Z,23.07
2023-04-09T02:58:57.696Z,23.13
2023-04-09T03:01:24.319Z,23.83
2023-04-09T03:03:51.122Z,23.23
2023-04-09T03:06:18.567Z,23.93
2023-04-09T03:08:45.578Z,24.90
2023-04-09T03:11:12.176Z,25.73
2023-04-09T03:13:38.755Z,23.83
2023-04-09T03:16:05.716Z,25.17
2023-04-09T03:18:32.364Z,25.80
2023-04-09T03:20:58.945Z,26.37
2023-04-09T03:23:25.565Z,28.07
2023-04-09T03:26:01.140Z,27.17
2023-04-09T03:28:27.737Z,27.93
2023-04-09T03:30:54.356Z,27.40
2023-04-09T03:33:20.991Z,27.53
2023-04-09T03:35:47.779Z,26.60
2023-04-09T03:38:14.808Z,26.50
2023-04-09T03:40:42.609Z,26.03
2023-04-09T03:43:09.264Z,27.77
2023-04-09T03:45:35.944Z,28.00
2023-04-09T03:48:02.556Z,27.23
2023-04-09T03:50:29.207Z,27.77
2023-04-09T03:52:55.826Z,27.50
2023-04-09T03:55:22.579Z,28.83
2023-04-09T03:57:49.111Z,27.87
2023-04-09T04:00:16.141Z,28.50
2023-04-09T04:02:42.969Z,28.60
2023-04-09T04:05:09.726Z,27.30
2023-04-09T04:07:36.966Z,28.23
2023-04-09T04:10:07.448Z,29.07
2023-04-09T04:12:34.056Z,28.10
2023-04-09T04:15:01.458Z,27.33
2023-04-09T04:17:28.063Z,27.30
2023-04-09T04:19:54.645Z,28.10
2023-04-09T04:22:21.298Z,29.37
2023-04-09T04:24:47.887Z,27.93
2023-04-09T04:27:14.463Z,28.13
2023-04-09T04:29:41.112Z,26.00
2023-04-09T04:32:07.710Z,26.53
2023-04-09T04:34:34.317Z,26.17
2023-04-09T04:37:00.886Z,24.77
2023-04-09T04:39:27.431Z,24.10
2023-04-09T04:41:53.967Z,25.30
2023-04-09T04:44:20.547Z,25.70
2023-04-09T04:46:47.191Z,24.67
2023-04-09T04:49:13.785Z,24.03
2023-04-09T04:51:40.367Z,24.63
2023-04-09T04:54:07.028Z,25.07
2023-04-09T04:56:33.640Z,23.97
2023-04-09T04:59:00.691Z,24.07
2023-04-09T05:01:27.362Z,24.13
2023-04-09T05:03:54.239Z,24.60
2023-04-09T05:06:21.131Z,24.17
2023-04-09T05:08:47.672Z,24.60
2023-04-09T05:11:16.598Z,26.17
2023-04-09T05:13:43.174Z,24.50
2023-04-09T05:16:17.372Z,25.10
2023-04-09T05:18:43.970Z,26.23
2023-04-09T05:21:10.508Z,26.23
2023-04-09T05:23:37.091Z,25.03
2023-04-09T05:26:03.656Z,23.53
2023-04-09T05:28:30.616Z,24.43
2023-04-09T05:30:57.236Z,24.23
2023-04-09T05:33:23.870Z,24.70
2023-04-09T05:35:50.571Z,23.53
2023-04-09T05:38:17.164Z,24.07
2023-04-09T05:40:45.692Z,22.83
2023-04-09T05:43:12.299Z,24.70
2023-04-09T05:45:38.845Z,22.53
2023-04-09T05:48:05.898Z,23.33
2023-04-09T05:50:40.707Z,22.93
2023-04-09T05:53:14.172Z,23.20
2023-04-09T05:55:40.877Z,22.90
2023-04-09T05:58:07.460Z,21.03
2023-04-09T06:00:34.082Z,22.63
2023-04-09T06:03:00.722Z,23.27
2023-04-09T06:05:28.225Z,23.10
2023-04-09T06:07:54.825Z,22.90
2023-04-09T06:10:21.631Z,21.73
2023-04-09T06:12:48.322Z,23.00
2023-04-09T06:15:15.024Z,21.87
2023-04-09T06:17:41.609Z,22.80
2023-04-09T06:20:08.694Z,23.83
2023-04-09T06:22:35.321Z,21.90
2023-04-09T06:25:02.008Z,21.83
2023-04-09T06:27:28.624Z,22.43
2023-04-09T06:29:55.278Z,21.43
2023-04-09T06:32:21.903Z,22.63
2023-04-09T06:34:48.511Z,22.87
2023-04-09T06:37:15.630Z,22.50
2023-04-09T06:39:47.627Z,22.40
2023-04-09T06:42:24.693Z,22.80
2023-04-09T06:44:51.690Z,20.63
2023-04-09T06:47:18.268Z,22.33
2023-04-09T06:49:44.870Z,20.90
2023-04-09T06:52:11.539Z,21.80
2023-04-09T06:54:38.117Z,21.40
2023-04-09T06:57:06.521Z,21.27
2023-04-09T06:59:33.811Z,21.80
2023-04-09T07:02:00.888Z,21.20
2023-04-09T07:04:27.702Z,22.00
2023-04-09T07:06:55.181Z,22.10
2023-04-09T07:09:21.749Z,21.00
2023-04-09T07:11:48.294Z,21.03
2023-04-09T07:14:14.921Z,21.43
2023-04-09T07:16:41.472Z,21.23
2023-04-09T07:19:08.114Z,21.70
2023-04-09T07:21:34.719Z,20.40
2023-04-09T07:24:01.314Z,21.30
2023-04-09T07:26:29.243Z,19.83
2023-04-09T07:28:56.223Z,20.83
2023-04-09T07:31:22.843Z,20.87
2023-04-09T07:33:49.479Z,20.30
2023-04-09T07:36:16.347Z,19.77
2023-04-09T07:38:42.961Z,20.20
2023-04-09T07:41:11.362Z,19.63
2023-04-09T07:43:38.552Z,18.57
2023-04-09T07:46:05.561Z,19.17
2023-04-09T07:48:32.296Z,19.27
2023-04-09T07:50:58.852Z,20.03
2023-04-09T07:53:25.430Z,17.83
2023-04-09T07:55:52.067Z,18.93
2023-04-09T07:58:18.669Z,19.40
2023-04-09T08:00:45.534Z,20.33
2023-04-09T08:03:12.707Z,20.70
2023-04-09T08:05:39.866Z,21.60
2023-04-09T08:08:06.436Z,21.97
2023-04-09T08:10:32.988Z,21.47
2023-04-09T08:12:59.548Z,23.17
2023-04-09T08:15:26.138Z,23.50
2023-04-09T08:17:52.837Z,24.27
2023-04-09T08:20:19.567Z,23.37
2023-04-09T08:22:46.138Z,23.23
2023-04-09T08:25:12.714Z,22.50
2023-04-09T08:27:39.738Z,22.10
2023-04-09T08:30:07.128Z,23.20
2023-04-09T08:32:33.786Z,22.17
2023-04-09T08:35:00.335Z,21.03
2023-04-09T08:37:27.371Z,24.17
2023-04-09T08:39:54.047Z,23.00
2023-04-09T08:42:22.440Z,23.83
2023-04-09T08:44:50.317Z,23.67
2023-04-09T08:47:17.561Z,23.37
2023-04-09T08:49:44.322Z,24.80
2023-04-09T08:52:10.884Z,23.53
2023-04-09T08:54:37.474Z,23.63
2023-04-09T08:57:07.169Z,23.47
2023-04-09T08:59:37.072Z,23.70
2023-04-09T09:02:11.740Z,23.60
2023-04-09T09:04:49.356Z,22.80
2023-04-09T09:07:19.822Z,22.57
2023-04-09T09:09:54.651Z,21.20
2023-04-09T09:12:41.544Z,22.57
2023-04-09T09:15:29.168Z,22.13
2023-04-09T09:18:04.608Z,22.00
2023-04-09T09:20:31.420Z,21.80
2023-04-09T09:22:58.306Z,20.53
2023-04-09T09:25:28.238Z,20.27
2023-04-09T09:27:54.909Z,20.93
2023-04-09T09:30:26.874Z,20.07
2023-04-09T09:32:55.148Z,20.77
2023-04-09T09:35:22.351Z,19.90
2023-04-09T09:38:02.713Z,21.03
2023-04-09T09:40:29.832Z,20.10
2023-04-09T09:42:57.822Z,20.23
2023-04-09T09:45:25.658Z,21.00
2023-04-09T09:47:53.726Z,21.10
2023-04-09T09:50:28.464Z,20.57
2023-04-09T09:53:03.167Z,19.53
2023-04-09T09:55:34.509Z,20.03
2023-04-09T09:58:06.406Z,19.37
2023-04-09T10:00:33.573Z,19.27
2023-04-09T10:03:09.451Z,19.47
2023-04-09T10:05:39.063Z,19.30
2023-04-09T10:08:06.936Z,18.87
2023-04-09T10:10:33.846Z,18.73
2023-04-09T10:13:00.642Z,20.77
2023-04-09T10:15:31.047Z,18.40
2023-04-09T10:17:58.176Z,19.43
2023-04-09T10:20:34.524Z,19.70
2023-04-09T10:23:06.178Z,18.27
2023-04-09T10:25:32.808Z,17.80
2023-04-09T10:28:00.588Z,17.93
2023-04-09T10:30:33.694Z,19.57
2023-04-09T10:33:17.406Z,20.87
2023-04-09T10:35:47.780Z,22.63
2023-04-09T10:38:15.391Z,24.33
2023-04-09T10:40:50.746Z,23.60
2023-04-09T10:43:22.139Z,20.57
2023-04-09T10:45:53.292Z,19.87
2023-04-09T10:48:21.772Z,16.47
2023-04-09T10:50:52.085Z,16.27
2023-04-09T10:53:23.942Z,16.13
2023-04-09T10:55:55.008Z,16.87
2023-04-09T10:58:21.707Z,17.53
2023-04-09T11:00:50.328Z,17.93
2023-04-09T11:03:21.724Z,17.67
2023-04-09T11:06:11.075Z,18.33
2023-04-09T11:08:38.691Z,16.50
2023-04-09T11:11:05.863Z,17.53
2023-04-09T11:13:34.029Z,16.87
2023-04-09T11:16:03.187Z,17.87
2023-04-09T11:18:30.835Z,17.77
2023-04-09T11:20:59.462Z,17.47
2023-04-09T11:23:26.806Z,16.83
2023-04-09T11:25:54.563Z,17.07
2023-04-09T11:28:21.629Z,17.13
2023-04-09T11:30:51.092Z,16.63
2023-04-09T11:33:19.754Z,16.13
2023-04-09T11:35:47.111Z,16.47
2023-04-09T11:38:13.807Z,16.83
2023-04-09T11:40:47.842Z,18.00
2023-04-09T11:43:18.098Z,17.43
2023-04-09T11:45:47.956Z,16.13
2023-04-09T11:48:15.040Z,17.10
2023-04-09T11:50:41.840Z,17.43
2023-04-09T11:53:22.261Z,18.10
2023-04-09T11:55:52.987Z,17.50
2023-04-09T11:58:23.464Z,17.87
2023-04-09T12:00:57.776Z,17.40
2023-04-09T12:03:32.942Z,16.53
2023-04-09T12:06:02.509Z,17.43
2023-04-09T12:08:29.370Z,16.97
2023-04-09T12:10:55.943Z,17.30
2023-04-09T12:13:32.547Z,17.70
2023-04-09T12:16:01.068Z,17.57
2023-04-09T12:18:27.684Z,17.50
2023-04-09T12:20:54.230Z,17.33
2023-04-09T12:23:20.804Z,18.17
2023-04-09T12:25:47.984Z,18.30
2023-04-09T12:28:16.648Z,18.03
2023-04-09T12:30:43.902Z,19.37
2023-04-09T12:33:11.338Z,18.43
2023-04-09T12:35:38.733Z,18.53
2023-04-09T12:38:05.725Z,18.83
2023-04-09T12:40:32.417Z,17.50
2023-04-09T12:42:59.061Z,17.80
2023-04-09T12:45:25.830Z,17.73
2023-04-09T12:47:52.866Z,17.67
2023-04-09T12:50:19.634Z,17.30
2023-04-09T12:52:46.313Z,17.63
2023-04-09T12:55:13.949Z,18.83
2023-04-09T12:57:44.774Z,17.53
2023-04-09T13:00:11.906Z,18.40
2023-04-09T13:02:38.691Z,18.67
2023-04-09T13:05:05.682Z,18.27
2023-04-09T13:07:32.259Z,18.73
2023-04-09T13:09:58.824Z,17.83
2023-04-09T13:12:25.686Z,17.67
2023-04-09T13:14:54.345Z,17.67
2023-04-09T13:17:20.953Z,17.87
2023-04-09T13:19:47.585Z,18.13
2023-04-09T13:22:14.411Z,16.97
2023-04-09T13:24:41.092Z,17.70
2023-04-09T13:27:09.553Z,18.40
2023-04-09T13:29:36.612Z,17.07
2023-04-09T13:32:07.012Z,18.00
2023-04-09T13:34:35.063Z,18.47
2023-04-09T13:37:04.868Z,18.13
2023-04-09T13:39:31.522Z,17.87
2023-04-09T13:41:58.276Z,18.07
2023-04-09T13:44:25.476Z,17.80
2023-04-09T13:46:52.408Z,18.43
2023-04-09T13:49:19.040Z,18.43
2023-04-09T13:51:45.972Z,18.10
2023-04-09T13:54:13.073Z,18.40
2023-04-09T13:56:40.342Z,17.50
2023-04-09T13:59:07.089Z,17.27
2023-04-09T14:01:34.609Z,17.43
2023-04-09T14:04:01.852Z,16.93
2023-04-09T14:06:28.536Z,16.47
2023-04-09T14:08:55.738Z,17.17
2023-04-09T14:11:22.537Z,17.23
2023-04-09T14:13:49.339Z,17.77
2023-04-09T14:16:16.014Z,16.97
2023-04-09T14:18:42.625Z,16.57
2023-04-09T14:21:10.365Z,17.20
2023-04-09T14:23:39.452Z,17.17
2023-04-09T14:26:06.844Z,16.53
2023-04-09T14:28:33.542Z,16.20
2023-04-09T14:31:00.580Z,16.83
2023-04-09T14:33:27.547Z,17.80
2023-04-09T14:35:54.208Z,15.53
2023-04-09T14:38:20.796Z,16.17
2023-04-09T14:40:47.391Z,16.13
2023-04-09T14:43:14.037Z,16.87
2023-04-09T14:45:40.982Z,14.97
2023-04-09T14:48:08.137Z,15.23
2023-04-09T14:50:36.143Z,16.60
2023-04-09T14:53:04.119Z,15.70
2023-04-09T14:55:30.811Z,15.63
2023-04-09T14:57:59.577Z,16.80
2023-04-09T15:00:26.530Z,16.37
2023-04-09T15:02:53.268Z,16.77
2023-04-09T15:05:20.074Z,16.40
2023-04-09T15:07:46.705Z,16.10
2023-04-09T15:10:13.751Z,15.00
2023-04-09T15:12:40.296Z,16.03
2023-04-09T15:15:08.741Z,16.67
2023-04-09T15:17:36.063Z,16.60
2023-04-09T15:20:03.423Z,15.80
2023-04-09T15:22:30.218Z,16.63
2023-04-09T15:24:56.997Z,15.90
2023-04-09T15:27:23.616Z,16.07
2023-04-09T15:29:50.667Z,15.53
2023-04-09T15:32:17.468Z,14.57
2023-04-09T15:34:44.621Z,15.03
2023-04-09T15:37:11.370Z,15.30
2023-04-09T15:39:38.030Z,15.00
2023-04-09T15:42:04.648Z,15.37
2023-04-09T15:44:31.468Z,14.33
2023-04-09T15:46:58.046Z,14.97
2023-04-09T15:49:24.665Z,15.37
2023-04-09T15:51:51.227Z,14.93
2023-04-09T15:54:17.839Z,14.63
2023-04-09T15:56:44.388Z,14.63
2023-04-09T15:59:10.992Z,15.23
2023-04-09T16:01:37.835Z,15.43
2023-04-09T16:04:04.926Z,13.83
2023-04-09T16:06:31.882Z,14.13
2023-04-09T16:08:58.879Z,14.73
2023-04-09T16:11:25.984Z,12.77
2023-04-09T16:13:52.652Z,13.20
2023-04-09T16:16:19.452Z,13.07
2023-04-09T16:18:46.169Z,13.07
2023-04-09T16:21:12.841Z,13.47
2023-04-09T16:23:39.776Z,13.77
2023-04-09T16:26:06.946Z,13.00
2023-04-09T16:28:33.626Z,13.57
2023-04-09T16:31:00.316Z,13.23
2023-04-09T16:33:27.026Z,12.23
2023-04-09T16:35:53.608Z,13.40
2023-04-09T16:38:20.223Z,12.90
2023-04-09T16:40:46.861Z,13.60
2023-04-09T16:43:13.465Z,14.00
2023-04-09T16:45:40.055Z,13.90
2023-04-09T16:48:11.897Z,13.87
2023-04-09T16:50:39.966Z,13.43
2023-04-09T16:53:06.625Z,14.27
2023-04-09T16:55:34.221Z,13.87
2023-04-09T16:58:01.004Z,13.93
2023-04-09T17:00:27.698Z,14.00
2023-04-09T17:02:55.915Z,14.60
2023-04-09T17:05:22.784Z,13.40
2023-04-09T17:07:49.386Z,15.13
2023-04-09T17:10:16.318Z,14.73
2023-04-09T17:12:42.907Z,15.00
2023-04-09T17:15:10.207Z,16.37
2023-04-09T17:17:37.330Z,15.80
2023-04-09T17:20:04.467Z,15.80
2023-04-09T17:22:31.194Z,15.60
2023-04-09T17:24:57.769Z,14.63
2023-04-09T17:27:24.334Z,14.67
2023-04-09T17:29:50.931Z,14.37
2023-04-09T17:32:18.515Z,14.93
2023-04-09T17:34:49.404Z,13.63
2023-04-09T17:37:16.185Z,14.33
2023-04-09T17:39:42.885Z,14.13
2023-04-09T17:42:11.634Z,14.63
2023-04-09T17:44:38.517Z,15.10
2023-04-09T17:47:07.246Z,15.10
2023-04-09T17:49:34.455Z,14.50
2023-04-09T17:52:01.247Z,15.40
2023-04-09T17:54:33.457Z,15.17
2023-04-09T17:57:01.138Z,15.80
2023-04-09T17:59:28.033Z,15.43
2023-04-09T18:01:55.212Z,15.43
2023-04-09T18:04:23.558Z,16.00
2023-04-09T18:06:50.899Z,16.43
2023-04-09T18:09:17.637Z,16.43
2023-04-09T18:11:44.357Z,15.57
2023-04-09T18:14:11.083Z,16.63
2023-04-09T18:16:38.803Z,16.63
2023-04-09T18:19:06.558Z,20.90
2023-04-09T18:21:33.421Z,23.93
2023-04-09T18:24:00.013Z,37.50
2023-04-09T18:26:26.649Z,38.57
2023-04-09T18:28:53.436Z,65.87
2023-04-09T18:31:20.207Z,27.10
2023-04-09T18:33:47.090Z,24.23
2023-04-09T18:36:14.006Z,28.17
2023-04-09T18:38:41.162Z,25.70
2023-04-09T18:41:08.199Z,25.90
2023-04-09T18:43:34.828Z,26.80
2023-04-09T18:46:01.432Z,26.60
2023-04-09T18:48:28.049Z,28.17
2023-04-09T18:50:54.633Z,28.63
2023-04-09T18:53:21.214Z,29.03
2023-04-09T18:55:47.836Z,30.77
2023-04-09T18:58:15.601Z,39.40
2023-04-09T19:00:43.424Z,33.17
2023-04-09T19:03:10.211Z,34.97
2023-04-09T19:05:37.380Z,30.30
2023-04-09T19:08:05.446Z,31.13
2023-04-09T19:10:32.840Z,30.23
2023-04-09T19:12:59.451Z,40.67
2023-04-09T19:15:26.823Z,74.40
2023-04-09T19:17:53.696Z,37.37
2023-04-09T19:20:20.454Z,45.33
2023-04-09T19:22:50.722Z,38.50
2023-04-09T19:25:18.326Z,43.33
2023-04-09T19:27:45.749Z,42.80
2023-04-09T19:30:12.884Z,41.50
2023-04-09T19:32:39.927Z,36.90
2023-04-09T19:35:07.277Z,34.93
2023-04-09T19:37:34.670Z,32.30
2023-04-09T19:40:04.645Z,31.90
2023-04-09T19:42:34.999Z,34.13
2023-04-09T19:45:01.988Z,30.87
2023-04-09T19:47:29.054Z,31.90
2023-04-09T19:49:55.645Z,31.50
2023-04-09T19:52:22.257Z,27.03
2023-04-09T19:55:28.571Z,25.03
2023-04-09T19:57:55.133Z,23.00
2023-04-09T20:00:21.830Z,23.37
2023-04-09T20:02:48.671Z,28.07
2023-04-09T20:05:15.683Z,26.27
2023-04-09T20:07:44.256Z,29.73
2023-04-09T20:10:11.158Z,29.97
2023-04-09T20:12:37.752Z,32.20
2023-04-09T20:15:04.639Z,27.77
2023-04-09T20:17:31.226Z,26.57
2023-04-09T20:19:57.806Z,27.03
2023-04-09T20:22:24.434Z,26.17
2023-04-09T20:24:51.939Z,24.13
2023-04-09T20:27:18.524Z,23.53
2023-04-09T20:29:45.252Z,25.00
2023-04-09T20:32:11.929Z,24.87
2023-04-09T20:34:38.980Z,24.93
2023-04-09T20:37:06.611Z,24.77
2023-04-09T20:39:33.241Z,22.70
2023-04-09T20:41:59.926Z,24.07
2023-04-09T20:44:28.789Z,25.23
2023-04-09T20:46:55.742Z,25.10
2023-04-09T20:49:22.546Z,26.40
2023-04-09T20:51:49.815Z,28.33
2023-04-09T20:54:17.997Z,27.70
2023-04-09T20:56:44.677Z,27.73
2023-04-09T20:59:11.832Z,28.73
2023-04-09T21:01:38.532Z,28.20
2023-04-09T21:04:05.252Z,29.07
2023-04-09T21:06:34.030Z,28.60
2023-04-09T21:09:00.609Z,28.03
2023-04-09T21:11:27.283Z,28.27
2023-04-09T21:13:57.684Z,28.57
2023-04-09T21:16:27.004Z,27.67
2023-04-09T21:18:53.857Z,27.05
2023-04-09T21:21:20.646Z,27.80
2023-04-09T21:23:47.202Z,27.63
2023-04-09T21:26:15.028Z,26.13
2023-04-09T21:28:41.733Z,25.90
2023-04-09T21:31:11.025Z,26.77
2023-04-09T21:33:39.127Z,26.07
2023-04-09T21:36:07.674Z,28.33
2023-04-09T21:38:34.601Z,28.13
2023-04-09T21:41:01.806Z,28.87
2023-04-09T21:43:29.158Z,28.20
2023-04-09T21:45:58.617Z,26.90
2023-04-09T21:48:26.388Z,26.17
2023-04-09T21:50:53.033Z,27.03
2023-04-09T21:53:19.632Z,28.47
2023-04-09T21:55:46.271Z,26.50
2023-04-09T21:58:12.844Z,25.77
2023-04-09T22:00:39.536Z,25.80
2023-04-09T22:03:06.330Z,28.90
2023-04-09T22:05:36.572Z,26.27
2023-04-09T22:08:03.233Z,26.00
2023-04-09T22:10:29.931Z,25.50
2023-04-09T22:12:56.643Z,25.40
2023-04-09T22:15:23.214Z,29.63
2023-04-09T22:17:49.821Z,25.23
2023-04-09T22:20:16.547Z,25.67
2023-04-09T22:22:43.258Z,24.70
2023-04-09T22:25:11.581Z,24.57
2023-04-09T22:27:38.675Z,23.73
2023-04-09T22:30:06.392Z,24.27
2023-04-09T22:32:36.018Z,24.80
2023-04-09T22:35:02.597Z,25.50
2023-04-09T22:37:29.219Z,26.70
2023-04-09T22:39:55.891Z,26.30
2023-04-09T22:42:22.475Z,25.00
2023-04-09T22:44:49.037Z,25.70
2023-04-09T22:47:15.890Z,25.67
2023-04-09T22:49:42.626Z,26.70
2023-04-09T22:52:09.507Z,25.63
2023-04-09T22:54:37.880Z,26.93
2023-04-09T22:57:04.505Z,26.17
2023-04-09T22:59:39.574Z,28.37
2023-04-09T23:02:07.661Z,26.80
2023-04-09T23:04:34.937Z,27.17
2023-04-09T23:07:02.328Z,26.03
2023-04-09T23:09:30.802Z,25.30
2023-04-09T23:11:57.488Z,26.20
2023-04-09T23:14:24.116Z,27.13
2023-04-09T23:16:50.801Z,24.77
2023-04-09T23:19:17.363Z,25.70
2023-04-09T23:21:43.898Z,25.73
2023-04-09T23:24:10.612Z,26.80
2023-04-09T23:26:37.227Z,25.80
2023-04-09T23:29:03.817Z,25.40
2023-04-09T23:31:30.397Z,24.30
2023-04-09T23:33:57.022Z,25.30
2023-04-09T23:36:24.231Z,25.27
2023-04-09T23:38:51.200Z,25.63
2023-04-09T23:41:17.864Z,26.00
2023-04-09T23:43:44.490Z,25.43
2023-04-09T23:46:11.118Z,25.23
2023-04-09T23:48:37.677Z,25.07
2023-04-09T23:51:04.519Z,24.90
2023-04-09T23:53:31.278Z,26.07
2023-04-09T23:55:58.540Z,24.37
2023-04-09T23:58:25.334Z,25.10
